aviador You're here:

SLCB Decoded Metar

COCHABAMBA in BOLIVIA
Report Time2017-08-22 11:00:00
UTC Time2017-08-22 11:12:02
Flight Rules vfr VFR
WindCalm
Visibility9999 m
Phenomena:N/A
Clouds:N/A
Expected CloudBase > 2,400 ft AGL from Temp-Dew spread
CeilingNone
Temp08°C (ISA +10)
Dew Point02°C (66% RH)
AAT6.3°C
QNH1027 hPa
Density Alt9,127 ft
Elevation8,360 ft
Report Wrong Elevation
Raw Report
METAR SLCB 221100Z 00000KT 9999 NSC 08/02 Q1027=

Extra information for SLCB:More info

Metar Taf Metar & Taf Last 4 Metars F.Rules Stats Wind Profile Meteogram Temp Stats Airport Information Weather charts Add Link Nearby VenuesMetar ALERT Operation Metar Decoded Social comments